sensor_id;sensor_type;location;lat;lon;timestamp;pressure;altitude;pressure_sealevel;temperature
62845;BMP280;48929;47.910;20.390;2023-04-03T00:01:37;99125.69;;;7.54
62845;BMP280;48929;47.910;20.390;2023-04-03T00:04:06;99131.06;;;7.53
62845;BMP280;48929;47.910;20.390;2023-04-03T00:06:35;99129.56;;;7.52
62845;BMP280;48929;47.910;20.390;2023-04-03T00:09:03;99120.06;;;7.52
62845;BMP280;48929;47.910;20.390;2023-04-03T00:11:34;99138.28;;;7.51
62845;BMP280;48929;47.910;20.390;2023-04-03T00:14:05;99131.84;;;7.48
62845;BMP280;48929;47.910;20.390;2023-04-03T00:16:33;99133.38;;;7.44
62845;BMP280;48929;47.910;20.390;2023-04-03T00:19:03;99133.13;;;7.41
62845;BMP280;48929;47.910;20.390;2023-04-03T00:21:32;99137.22;;;7.37
62845;BMP280;48929;47.910;20.390;2023-04-03T00:24:01;99139.50;;;7.33
62845;BMP280;48929;47.910;20.390;2023-04-03T00:26:29;99135.16;;;7.29
62845;BMP280;48929;47.910;20.390;2023-04-03T00:28:58;99135.69;;;7.26
62845;BMP280;48929;47.910;20.390;2023-04-03T00:31:28;99134.38;;;7.23
62845;BMP280;48929;47.910;20.390;2023-04-03T00:33:58;99144.13;;;7.21
62845;BMP280;48929;47.910;20.390;2023-04-03T00:36:27;99136.69;;;7.14
62845;BMP280;48929;47.910;20.390;2023-04-03T00:38:55;99134.09;;;7.09
62845;BMP280;48929;47.910;20.390;2023-04-03T00:41:24;99149.22;;;7.06
62845;BMP280;48929;47.910;20.390;2023-04-03T00:43:53;99150.72;;;7.02
62845;BMP280;48929;47.910;20.390;2023-04-03T00:46:21;99155.06;;;6.96
62845;BMP280;48929;47.910;20.390;2023-04-03T00:48:54;99144.59;;;6.93
62845;BMP280;48929;47.910;20.390;2023-04-03T00:51:24;99148.66;;;6.89
62845;BMP280;48929;47.910;20.390;2023-04-03T00:53:55;99146.56;;;6.85
62845;BMP280;48929;47.910;20.390;2023-04-03T00:56:26;99158.13;;;6.83
62845;BMP280;48929;47.910;20.390;2023-04-03T00:58:59;99163.47;;;6.81
62845;BMP280;48929;47.910;20.390;2023-04-03T01:01:28;99166.78;;;6.77
62845;BMP280;48929;47.910;20.390;2023-04-03T01:03:59;99163.44;;;6.71
62845;BMP280;48929;47.910;20.390;2023-04-03T01:06:32;99171.09;;;6.66
62845;BMP280;48929;47.910;20.390;2023-04-03T01:09:02;99175.91;;;6.58
62845;BMP280;48929;47.910;20.390;2023-04-03T01:11:31;99172.03;;;6.50
62845;BMP280;48929;47.910;20.390;2023-04-03T01:14:00;99170.75;;;6.42
62845;BMP280;48929;47.910;20.390;2023-04-03T01:16:29;99169.88;;;6.32
62845;BMP280;48929;47.910;20.390;2023-04-03T01:19:00;99184.91;;;6.23
62845;BMP280;48929;47.910;20.390;2023-04-03T01:21:49;99180.53;;;6.14
62845;BMP280;48929;47.910;20.390;2023-04-03T01:24:32;99183.03;;;6.08
62845;BMP280;48929;47.910;20.390;2023-04-03T01:27:03;99184.03;;;6.02
62845;BMP280;48929;47.910;20.390;2023-04-03T01:29:32;99183.47;;;5.95
62845;BMP280;48929;47.910;20.390;2023-04-03T01:32:03;99186.25;;;5.94
62845;BMP280;48929;47.910;20.390;2023-04-03T01:34:32;99179.84;;;5.91
62845;BMP280;48929;47.910;20.390;2023-04-03T01:37:01;99186.47;;;5.87
62845;BMP280;48929;47.910;20.390;2023-04-03T01:39:29;99182.06;;;5.83
62845;BMP280;48929;47.910;20.390;2023-04-03T01:41:58;99182.06;;;5.83
62845;BMP280;48929;47.910;20.390;2023-04-03T01:44:27;99186.66;;;5.81
62845;BMP280;48929;47.910;20.390;2023-04-03T01:46:56;99186.34;;;5.77
62845;BMP280;48929;47.910;20.390;2023-04-03T01:49:27;99181.25;;;5.77
62845;BMP280;48929;47.910;20.390;2023-04-03T01:51:56;99187.59;;;5.75
62845;BMP280;48929;47.910;20.390;2023-04-03T01:54:25;99186.06;;;5.73
62845;BMP280;48929;47.910;20.390;2023-04-03T01:56:53;99182.50;;;5.69
62845;BMP280;48929;47.910;20.390;2023-04-03T01:59:22;99197.59;;;5.71
62845;BMP280;48929;47.910;20.390;2023-04-03T02:01:51;99193.50;;;5.70
62845;BMP280;48929;47.910;20.390;2023-04-03T02:04:20;99197.84;;;5.69
62845;BMP280;48929;47.910;20.390;2023-04-03T02:06:51;99197.59;;;5.71
62845;BMP280;48929;47.910;20.390;2023-04-03T02:09:20;99194.00;;;5.72
62845;BMP280;48929;47.910;20.390;2023-04-03T02:11:48;99196.56;;;5.72
62845;BMP280;48929;47.910;20.390;2023-04-03T02:14:17;99198.84;;;5.73
62845;BMP280;48929;47.910;20.390;2023-04-03T02:16:46;99196.56;;;5.72
62845;BMP280;48929;47.910;20.390;2023-04-03T02:19:15;99199.88;;;5.72
62845;BMP280;48929;47.910;20.390;2023-04-03T02:21:44;99201.66;;;5.72
62845;BMP280;48929;47.910;20.390;2023-04-03T02:24:15;99201.66;;;5.72
62845;BMP280;48929;47.910;20.390;2023-04-03T02:26:43;99199.63;;;5.69
62845;BMP280;48929;47.910;20.390;2023-04-03T02:29:13;99188.06;;;5.66
62845;BMP280;48929;47.910;20.390;2023-04-03T02:31:42;99191.88;;;5.64
62845;BMP280;48929;47.910;20.390;2023-04-03T02:34:10;99187.25;;;5.61
62845;BMP280;48929;47.910;20.390;2023-04-03T02:36:39;99192.59;;;5.59
62845;BMP280;48929;47.910;20.390;2023-04-03T02:39:08;99196.41;;;5.57
62845;BMP280;48929;47.910;20.390;2023-04-03T02:41:39;99198.13;;;5.51
62845;BMP280;48929;47.910;20.390;2023-04-03T02:44:12;99194.03;;;5.50
62845;BMP280;48929;47.910;20.390;2023-04-03T02:46:41;99190.41;;;5.46
62845;BMP280;48929;47.910;20.390;2023-04-03T02:49:10;99191.69;;;5.44
62845;BMP280;48929;47.910;20.390;2023-04-03T02:51:38;99193.47;;;5.43
62845;BMP280;48929;47.910;20.390;2023-04-03T02:54:07;99191.69;;;5.44
62845;BMP280;48929;47.910;20.390;2023-04-03T02:56:38;99189.63;;;5.41
62845;BMP280;48929;47.910;20.390;2023-04-03T02:59:07;99196.50;;;5.40
62845;BMP280;48929;47.910;20.390;2023-04-03T03:01:36;99196.75;;;5.39
62845;BMP280;48929;47.910;20.390;2023-04-03T03:04:05;99196.75;;;5.39
62845;BMP280;48929;47.910;20.390;2023-04-03T03:06:33;99198.00;;;5.36
62845;BMP280;48929;47.910;20.390;2023-04-03T03:09:03;99202.09;;;5.37
62845;BMP280;48929;47.910;20.390;2023-04-03T03:11:32;99200.31;;;5.38
62845;BMP280;48929;47.910;20.390;2023-04-03T03:14:03;99203.88;;;5.37
62845;BMP280;48929;47.910;20.390;2023-04-03T03:16:32;99203.41;;;5.40
62845;BMP280;48929;47.910;20.390;2023-04-03T03:19:01;99201.88;;;5.39
62845;BMP280;48929;47.910;20.390;2023-04-03T03:21:29;99193.44;;;5.38
62845;BMP280;48929;47.910;20.390;2023-04-03T03:23:58;99198.00;;;5.36
62845;BMP280;48929;47.910;20.390;2023-04-03T03:26:27;99200.78;;;5.34
62845;BMP280;48929;47.910;20.390;2023-04-03T03:28:55;99199.72;;;5.30
62845;BMP280;48929;47.910;20.390;2023-04-03T03:31:26;99195.06;;;5.27
62845;BMP280;48929;47.910;20.390;2023-04-03T03:33:55;99201.94;;;5.27
62845;BMP280;48929;47.910;20.390;2023-04-03T03:36:23;99192.22;;;5.24
62845;BMP280;48929;47.910;20.390;2023-04-03T03:38:55;99202.69;;;5.22
62845;BMP280;48929;47.910;20.390;2023-04-03T03:41:24;99204.69;;;5.20
62845;BMP280;48929;47.910;20.390;2023-04-03T03:43:53;99198.06;;;5.19
62845;BMP280;48929;47.910;20.390;2023-04-03T03:46:21;99201.38;;;5.20
62845;BMP280;48929;47.910;20.390;2023-04-03T03:48:52;99202.91;;;5.21
62845;BMP280;48929;47.910;20.390;2023-04-03T03:51:20;99198.31;;;5.18
62845;BMP280;48929;47.910;20.390;2023-04-03T03:53:49;99204.97;;;5.19
62845;BMP280;48929;47.910;20.390;2023-04-03T03:56:18;99211.84;;;5.18
62845;BMP280;48929;47.910;20.390;2023-04-03T03:58:47;99204.97;;;5.19
62845;BMP280;48929;47.910;20.390;2023-04-03T04:01:16;99210.59;;;5.21
62845;BMP280;48929;47.910;20.390;2023-04-03T04:03:44;99214.91;;;5.20
62845;BMP280;48929;47.910;20.390;2023-04-03T04:06:16;99216.69;;;5.20
62845;BMP280;48929;47.910;20.390;2023-04-03T04:08:45;99210.59;;;5.21
62845;BMP280;48929;47.910;20.390;2023-04-03T04:11:14;99212.91;;;5.22
62845;BMP280;48929;47.910;20.390;2023-04-03T04:13:43;99207.03;;;5.22
62845;BMP280;48929;47.910;20.390;2023-04-03T04:16:11;99211.59;;;5.20
62845;BMP280;48929;47.910;20.390;2023-04-03T04:18:40;99212.63;;;5.19
62845;BMP280;48929;47.910;20.390;2023-04-03T04:21:09;99217.97;;;5.17
62845;BMP280;48929;47.910;20.390;2023-04-03T04:23:39;99224.63;;;5.18
62845;BMP280;48929;47.910;20.390;2023-04-03T04:26:07;99221.81;;;5.20
62845;BMP280;48929;47.910;20.390;2023-04-03T04:28:37;99233.84;;;5.19
62845;BMP280;48929;47.910;20.390;2023-04-03T04:31:08;99225.41;;;5.19
62845;BMP280;48929;47.910;20.390;2023-04-03T04:33:37;99231.28;;;5.19
62845;BMP280;48929;47.910;20.390;2023-04-03T04:36:09;99225.41;;;5.19
62845;BMP280;48929;47.910;20.390;2023-04-03T04:38:39;99223.34;;;5.21
62845;BMP280;48929;47.910;20.390;2023-04-03T04:41:11;99230.78;;;5.22
62845;BMP280;48929;47.910;20.390;2023-04-03T04:43:40;99237.44;;;5.23
62845;BMP280;48929;47.910;20.390;2023-04-03T04:46:10;99233.66;;;5.26
62845;BMP280;48929;47.910;20.390;2023-04-03T04:48:39;99236.94;;;5.26
62845;BMP280;48929;47.910;20.390;2023-04-03T04:51:08;99242.59;;;5.28
62845;BMP280;48929;47.910;20.390;2023-04-03T04:53:39;99240.34;;;5.32
62845;BMP280;48929;47.910;20.390;2023-04-03T04:56:10;99241.66;;;5.34
62845;BMP280;48929;47.910;20.390;2023-04-03T04:58:39;99249.88;;;5.37
62845;BMP280;48929;47.910;20.390;2023-04-03T05:01:09;99253.44;;;5.36
62845;BMP280;48929;47.910;20.390;2023-04-03T05:03:38;99248.88;;;5.38
62845;BMP280;48929;47.910;20.390;2023-04-03T05:06:07;99247.91;;;5.44
62845;BMP280;48929;47.910;20.390;2023-04-03T05:08:36;99251.03;;;5.51
62845;BMP280;48929;47.910;20.390;2023-04-03T05:11:06;99260.31;;;5.57
62845;BMP280;48929;47.910;20.390;2023-04-03T05:13:35;99263.47;;;5.64
62845;BMP280;48929;47.910;20.390;2023-04-03T05:16:04;99254.84;;;5.70
62845;BMP280;48929;47.910;20.390;2023-04-03T05:18:33;99253.38;;;5.79
62845;BMP280;48929;47.910;20.390;2023-04-03T05:21:03;99259.88;;;5.87
62845;BMP280;48929;47.910;20.390;2023-04-03T05:23:31;99259.91;;;5.92
62845;BMP280;48929;47.910;20.390;2023-04-03T05:26:00;99261.47;;;5.98
62845;BMP280;48929;47.910;20.390;2023-04-03T05:28:30;99265.13;;;6.07
62845;BMP280;48929;47.910;20.390;2023-04-03T05:30:59;99272.41;;;6.15
62845;BMP280;48929;47.910;20.390;2023-04-03T05:33:30;99259.41;;;6.22
62845;BMP280;48929;47.910;20.390;2023-04-03T05:36:02;99272.75;;;6.29
62845;BMP280;48929;47.910;20.390;2023-04-03T05:38:31;99275.38;;;6.39
62845;BMP280;48929;47.910;20.390;2023-04-03T05:41:00;99273.66;;;6.50
62845;BMP280;48929;47.910;20.390;2023-04-03T05:43:31;99269.38;;;6.60
62845;BMP280;48929;47.910;20.390;2023-04-03T05:46:09;99266.09;;;6.70
62845;BMP280;48929;47.910;20.390;2023-04-03T05:48:39;99276.91;;;6.77
62845;BMP280;48929;47.910;20.390;2023-04-03T05:51:14;99267.22;;;6.84
62845;BMP280;48929;47.910;20.390;2023-04-03T05:53:44;99264.41;;;6.85
62845;BMP280;48929;47.910;20.390;2023-04-03T05:56:16;99268.31;;;6.93
62845;BMP280;48929;47.910;20.390;2023-04-03T05:58:47;99270.63;;;7.00
62845;BMP280;48929;47.910;20.390;2023-04-03T06:01:15;99266.84;;;7.07
62845;BMP280;48929;47.910;20.390;2023-04-03T06:03:44;99266.88;;;7.17
62845;BMP280;48929;47.910;20.390;2023-04-03T06:06:13;99268.19;;;7.25
62845;BMP280;48929;47.910;20.390;2023-04-03T06:08:42;99264.59;;;7.31
62845;BMP280;48929;47.910;20.390;2023-04-03T06:11:11;99266.41;;;7.36
62845;BMP280;48929;47.910;20.390;2023-04-03T06:13:40;99271.03;;;7.39
62845;BMP280;48929;47.910;20.390;2023-04-03T06:16:12;99272.78;;;7.33
62845;BMP280;48929;47.910;20.390;2023-04-03T06:18:42;99264.56;;;7.16
62845;BMP280;48929;47.910;20.390;2023-04-03T06:21:10;99276.53;;;7.00
62845;BMP280;48929;47.910;20.390;2023-04-03T06:23:39;99268.50;;;6.87
62845;BMP280;48929;47.910;20.390;2023-04-03T06:26:08;99270.00;;;6.77
62845;BMP280;48929;47.910;20.390;2023-04-03T06:28:37;99278.69;;;6.76
62845;BMP280;48929;47.910;20.390;2023-04-03T06:31:06;99273.06;;;6.74
62845;BMP280;48929;47.910;20.390;2023-04-03T06:33:37;99276.66;;;6.73
62845;BMP280;48929;47.910;20.390;2023-04-03T06:36:07;99281.75;;;6.73
62845;BMP280;48929;47.910;20.390;2023-04-03T06:38:37;99279.44;;;6.72
62845;BMP280;48929;47.910;20.390;2023-04-03T06:41:07;99286.66;;;6.75
62845;BMP280;48929;47.910;20.390;2023-04-03T06:43:36;99287.38;;;6.75
62845;BMP280;48929;47.910;20.390;2023-04-03T06:46:05;99284.59;;;6.77
62845;BMP280;48929;47.910;20.390;2023-04-03T06:48:33;99295.06;;;6.75
62845;BMP280;48929;47.910;20.390;2023-04-03T06:51:04;99296.13;;;6.79
62845;BMP280;48929;47.910;20.390;2023-04-03T06:53:33;99298.22;;;6.88
62845;BMP280;48929;47.910;20.390;2023-04-03T06:56:02;99291.13;;;6.95
62845;BMP280;48929;47.910;20.390;2023-04-03T06:58:31;99296.50;;;6.93
62845;BMP280;48929;47.910;20.390;2023-04-03T07:01:00;99291.63;;;6.97
62845;BMP280;48929;47.910;20.390;2023-04-03T07:03:29;99285.75;;;7.01
62845;BMP280;48929;47.910;20.390;2023-04-03T07:06:00;99295.25;;;7.06
62845;BMP280;48929;47.910;20.390;2023-04-03T07:08:31;99300.63;;;7.09
62845;BMP280;48929;47.910;20.390;2023-04-03T07:11:01;99296.03;;;7.11
62845;BMP280;48929;47.910;20.390;2023-04-03T07:13:29;99298.66;;;7.16
62845;BMP280;48929;47.910;20.390;2023-04-03T07:15:58;99297.88;;;7.21
62845;BMP280;48929;47.910;20.390;2023-04-03T07:18:28;99313.03;;;7.28
62845;BMP280;48929;47.910;20.390;2023-04-03T07:20:57;99314.09;;;7.37
62845;BMP280;48929;47.910;20.390;2023-04-03T07:23:27;99307.19;;;7.37
62845;BMP280;48929;47.910;20.390;2023-04-03T07:25:58;99315.66;;;7.38
62845;BMP280;48929;47.910;20.390;2023-04-03T07:28:28;99330.28;;;7.42
62845;BMP280;48929;47.910;20.390;2023-04-03T07:31:00;99316.44;;;7.43
62845;BMP280;48929;47.910;20.390;2023-04-03T07:33:30;99314.66;;;7.49
62845;BMP280;48929;47.910;20.390;2023-04-03T07:35:59;99321.84;;;7.57
62845;BMP280;48929;47.910;20.390;2023-04-03T07:38:28;99312.59;;;7.56
62845;BMP280;48929;47.910;20.390;2023-04-03T07:40:59;99321.59;;;7.58
62845;BMP280;48929;47.910;20.390;2023-04-03T07:43:28;99325.22;;;7.63
62845;BMP280;48929;47.910;20.390;2023-04-03T07:45:57;99328.81;;;7.61
62845;BMP280;48929;47.910;20.390;2023-04-03T07:48:26;99327.25;;;7.60
62845;BMP280;48929;47.910;20.390;2023-04-03T07:51:04;99339.06;;;7.61
62845;BMP280;48929;47.910;20.390;2023-04-03T07:53:36;99331.91;;;7.69
62845;BMP280;48929;47.910;20.390;2023-04-03T07:56:07;99334.75;;;7.72
62845;BMP280;48929;47.910;20.390;2023-04-03T07:58:35;99329.63;;;7.77
62845;BMP280;48929;47.910;20.390;2023-04-03T08:01:04;99327.81;;;7.78
62845;BMP280;48929;47.910;20.390;2023-04-03T08:03:33;99327.03;;;7.82
62845;BMP280;48929;47.910;20.390;2023-04-03T08:06:06;99321.66;;;7.84
62845;BMP280;48929;47.910;20.390;2023-04-03T08:08:41;99327.31;;;7.86
62845;BMP280;48929;47.910;20.390;2023-04-03T08:11:11;99327.06;;;7.87
62845;BMP280;48929;47.910;20.390;2023-04-03T08:13:40;99332.00;;;7.99
62845;BMP280;48929;47.910;20.390;2023-04-03T08:16:12;99304.78;;;7.98
62845;BMP280;48929;47.910;20.390;2023-04-03T08:18:41;99297.56;;;7.95
62845;BMP280;48929;47.910;20.390;2023-04-03T08:21:11;99295.25;;;7.93
62845;BMP280;48929;47.910;20.390;2023-04-03T08:23:40;99298.88;;;7.97
62845;BMP280;48929;47.910;20.390;2023-04-03T08:26:12;99304.00;;;8.08
62845;BMP280;48929;47.910;20.390;2023-04-03T08:28:41;99297.34;;;8.17
62845;BMP280;48929;47.910;20.390;2023-04-03T08:31:12;99292.69;;;8.14
62845;BMP280;48929;47.910;20.390;2023-04-03T08:33:42;99290.41;;;8.17
62845;BMP280;48929;47.910;20.390;2023-04-03T08:36:17;99287.84;;;8.17
62845;BMP280;48929;47.910;20.390;2023-04-03T08:38:47;99289.63;;;8.22
62845;BMP280;48929;47.910;20.390;2023-04-03T08:41:22;99291.94;;;8.23
62845;BMP280;48929;47.910;20.390;2023-04-03T08:44:13;99294.75;;;8.12
62845;BMP280;48929;47.910;20.390;2023-04-03T08:46:53;99303.47;;;8.00
62845;BMP280;48929;47.910;20.390;2023-04-03T08:49:28;99300.41;;;7.98
62845;BMP280;48929;47.910;20.390;2023-04-03T08:51:59;99302.19;;;7.93
62845;BMP280;48929;47.910;20.390;2023-04-03T08:54:32;99303.97;;;7.87
62845;BMP280;48929;47.910;20.390;2023-04-03T08:57:05;99311.13;;;7.80
62845;BMP280;48929;47.910;20.390;2023-04-03T08:59:36;99303.72;;;7.84
62845;BMP280;48929;47.910;20.390;2023-04-03T09:02:23;99301.69;;;8.01
62845;BMP280;48929;47.910;20.390;2023-04-03T09:04:53;99299.63;;;8.13
62845;BMP280;48929;47.910;20.390;2023-04-03T09:07:33;99304.28;;;8.26
62845;BMP280;48929;47.910;20.390;2023-04-03T09:10:01;99307.84;;;8.41
62845;BMP280;48929;47.910;20.390;2023-04-03T09:12:37;99293.72;;;8.53
62845;BMP280;48929;47.910;20.390;2023-04-03T09:15:09;99303.47;;;8.61
62845;BMP280;48929;47.910;20.390;2023-04-03T09:17:42;99296.00;;;8.70
62845;BMP280;48929;47.910;20.390;2023-04-03T09:20:20;99298.28;;;8.76
62845;BMP280;48929;47.910;20.390;2023-04-03T09:22:51;99298.28;;;8.82
62845;BMP280;48929;47.910;20.390;2023-04-03T09:25:23;99298.75;;;8.99
62845;BMP280;48929;47.910;20.390;2023-04-03T09:27:57;99301.56;;;8.92
62845;BMP280;48929;47.910;20.390;2023-04-03T09:30:26;99303.69;;;8.80
62845;BMP280;48929;47.910;20.390;2023-04-03T09:32:57;99309.59;;;8.81
62845;BMP280;48929;47.910;20.390;2023-04-03T09:35:28;99316.03;;;8.78
62845;BMP280;48929;47.910;20.390;2023-04-03T09:38:21;99318.09;;;8.81
62845;BMP280;48929;47.910;20.390;2023-04-03T09:41:04;99310.56;;;8.95
62845;BMP280;48929;47.910;20.390;2023-04-03T09:43:34;99306.69;;;9.02
62845;BMP280;48929;47.910;20.390;2023-04-03T09:46:25;99319.06;;;9.00
62845;BMP280;48929;47.910;20.390;2023-04-03T09:48:58;99312.88;;;8.91
62845;BMP280;48929;47.910;20.390;2023-04-03T09:51:36;99314.69;;;8.91
62845;BMP280;48929;47.910;20.390;2023-04-03T09:54:30;99315.44;;;8.96
62845;BMP280;48929;47.910;20.390;2023-04-03T09:57:05;99306.19;;;9.00
62845;BMP280;48929;47.910;20.390;2023-04-03T09:59:37;99315.88;;;9.13
62845;BMP280;48929;47.910;20.390;2023-04-03T10:02:34;99315.38;;;9.11
62845;BMP280;48929;47.910;20.390;2023-04-03T10:05:04;99311.34;;;9.00
62845;BMP280;48929;47.910;20.390;2023-04-03T10:07:38;99314.94;;;8.94
62845;BMP280;48929;47.910;20.390;2023-04-03T10:10:17;99322.09;;;9.02
62845;BMP280;48929;47.910;20.390;2023-04-03T10:12:47;99316.16;;;9.17
62845;BMP280;48929;47.910;20.390;2023-04-03T10:15:18;99314.56;;;9.26
62845;BMP280;48929;47.910;20.390;2023-04-03T10:17:54;99312.72;;;9.37
62845;BMP280;48929;47.910;20.390;2023-04-03T10:20:39;99325.75;;;9.50
62845;BMP280;48929;47.910;20.390;2023-04-03T10:23:15;99322.81;;;9.67
62845;BMP280;48929;47.910;20.390;2023-04-03T10:25:55;99326.88;;;9.78
62845;BMP280;48929;47.910;20.390;2023-04-03T10:28:30;99328.56;;;9.98
62845;BMP280;48929;47.910;20.390;2023-04-03T10:31:04;99318.97;;;10.04
62845;BMP280;48929;47.910;20.390;2023-04-03T10:33:49;99324.75;;;10.24
62845;BMP280;48929;47.910;20.390;2023-04-03T10:36:29;99313.72;;;10.48
62845;BMP280;48929;47.910;20.390;2023-04-03T10:39:06;99318.22;;;10.61
62845;BMP280;48929;47.910;20.390;2023-04-03T10:41:48;99314.03;;;10.65
62845;BMP280;48929;47.910;20.390;2023-04-03T10:44:37;99316.81;;;10.68
62845;BMP280;48929;47.910;20.390;2023-04-03T10:47:17;99317.72;;;10.59
62845;BMP280;48929;47.910;20.390;2023-04-03T10:49:58;99313.91;;;10.51
62845;BMP280;48929;47.910;20.390;2023-04-03T10:52:32;99321.88;;;10.55
62845;BMP280;48929;47.910;20.390;2023-04-03T10:55:20;99308.28;;;10.49
62845;BMP280;48929;47.910;20.390;2023-04-03T10:57:54;99271.28;;;10.64
62845;BMP280;48929;47.910;20.390;2023-04-03T11:00:31;99308.28;;;10.97
62845;BMP280;48929;47.910;20.390;2023-04-03T11:03:07;99299.94;;;11.24
62845;BMP280;48929;47.910;20.390;2023-04-03T11:05:42;99321.22;;;11.34
62845;BMP280;48929;47.910;20.390;2023-04-03T11:08:27;99295.34;;;11.20
62845;BMP280;48929;47.910;20.390;2023-04-03T11:11:06;99299.66;;;11.25
62845;BMP280;48929;47.910;20.390;2023-04-03T11:13:40;99297.91;;;11.02
62845;BMP280;48929;47.910;20.390;2023-04-03T11:16:15;99294.66;;;10.91
62845;BMP280;48929;47.910;20.390;2023-04-03T11:18:49;99303.81;;;11.02
62845;BMP280;48929;47.910;20.390;2023-04-03T11:21:21;99289.38;;;11.01
62845;BMP280;48929;47.910;20.390;2023-04-03T11:23:51;99268.06;;;10.96
62845;BMP280;48929;47.910;20.390;2023-04-03T11:26:23;99283.13;;;10.89
62845;BMP280;48929;47.910;20.390;2023-04-03T11:28:58;99287.84;;;11.00
62845;BMP280;48929;47.910;20.390;2023-04-03T11:31:56;99290.94;;;11.02
62845;BMP280;48929;47.910;20.390;2023-04-03T11:34:34;99279.41;;;10.95
62845;BMP280;48929;47.910;20.390;2023-04-03T11:37:13;99289.81;;;10.90
62845;BMP280;48929;47.910;20.390;2023-04-03T11:39:50;99304.66;;;10.98
62845;BMP280;48929;47.910;20.390;2023-04-03T11:42:33;99296.06;;;10.84
62845;BMP280;48929;47.910;20.390;2023-04-03T11:45:17;99300.72;;;10.82
62845;BMP280;48929;47.910;20.390;2023-04-03T11:47:56;99298.97;;;10.77
62845;BMP280;48929;47.910;20.390;2023-04-03T11:50:45;99304.34;;;10.81
62845;BMP280;48929;47.910;20.390;2023-04-03T11:53:35;99301.94;;;10.89
62845;BMP280;48929;47.910;20.390;2023-04-03T11:56:28;99295.16;;;10.93
62845;BMP280;48929;47.910;20.390;2023-04-03T11:59:19;99294.53;;;11.01
62845;BMP280;48929;47.910;20.390;2023-04-03T12:01:50;99286.84;;;11.20
62845;BMP280;48929;47.910;20.390;2023-04-03T12:04:23;99296.69;;;11.37
62845;BMP280;48929;47.910;20.390;2023-04-03T12:07:11;99284.09;;;11.49
62845;BMP280;48929;47.910;20.390;2023-04-03T12:10:14;99286.97;;;11.29
62845;BMP280;48929;47.910;20.390;2023-04-03T12:12:59;99287.88;;;11.19
62845;BMP280;48929;47.910;20.390;2023-04-03T12:15:51;99297.88;;;10.83
62845;BMP280;48929;47.910;20.390;2023-04-03T12:18:55;99289.38;;;10.59
62845;BMP280;48929;47.910;20.390;2023-04-03T12:29:23;99293.91;;;10.14
62845;BMP280;48929;47.910;20.390;2023-04-03T12:33:17;99263.63;;;10.06
62845;BMP280;48929;47.910;20.390;2023-04-03T12:40:21;99301.28;;;10.78
62845;BMP280;48929;47.910;20.390;2023-04-03T12:43:05;99282.41;;;10.83
62845;BMP280;48929;47.910;20.390;2023-04-03T12:45:41;99286.47;;;11.08
62845;BMP280;48929;47.910;20.390;2023-04-03T12:48:15;99284.38;;;11.47
62845;BMP280;48929;47.910;20.390;2023-04-03T12:50:45;99273.69;;;11.73
62845;BMP280;48929;47.910;20.390;2023-04-03T12:53:18;99266.97;;;11.39
62845;BMP280;48929;47.910;20.390;2023-04-03T12:55:55;99256.69;;;10.78
62845;BMP280;48929;47.910;20.390;2023-04-03T12:58:25;99258.59;;;10.44
62845;BMP280;48929;47.910;20.390;2023-04-03T13:00:59;99279.75;;;10.17
62845;BMP280;48929;47.910;20.390;2023-04-03T13:03:29;99286.94;;;10.44
62845;BMP280;48929;47.910;20.390;2023-04-03T13:06:00;99283.75;;;11.18
62845;BMP280;48929;47.910;20.390;2023-04-03T13:08:30;99265.34;;;11.76
62845;BMP280;48929;47.910;20.390;2023-04-03T13:11:02;99259.25;;;12.45
62845;BMP280;48929;47.910;20.390;2023-04-03T13:13:32;99241.69;;;12.56
62845;BMP280;48929;47.910;20.390;2023-04-03T13:16:07;99230.41;;;12.11
62845;BMP280;48929;47.910;20.390;2023-04-03T13:18:38;99233.16;;;11.41
62845;BMP280;48929;47.910;20.390;2023-04-03T13:21:10;99249.19;;;11.19
62845;BMP280;48929;47.910;20.390;2023-04-03T13:23:45;99272.50;;;11.46
62845;BMP280;48929;47.910;20.390;2023-04-03T13:26:20;99263.78;;;11.61
62845;BMP280;48929;47.910;20.390;2023-04-03T13:28:50;99257.66;;;11.57
62845;BMP280;48929;47.910;20.390;2023-04-03T13:31:23;99253.06;;;11.86
62845;BMP280;48929;47.910;20.390;2023-04-03T13:33:56;99252.13;;;11.96
62845;BMP280;48929;47.910;20.390;2023-04-03T13:36:30;99251.81;;;11.84
62845;BMP280;48929;47.910;20.390;2023-04-03T13:39:04;99247.69;;;11.83
62845;BMP280;48929;47.910;20.390;2023-04-03T13:41:35;99235.72;;;11.73
62845;BMP280;48929;47.910;20.390;2023-04-03T13:44:27;99245.19;;;11.78
62845;BMP280;48929;47.910;20.390;2023-04-03T13:46:57;99242.06;;;11.81
62845;BMP280;48929;47.910;20.390;2023-04-03T13:49:32;99243.59;;;11.95
62845;BMP280;48929;47.910;20.390;2023-04-03T13:52:03;99232.41;;;12.00
62845;BMP280;48929;47.910;20.390;2023-04-03T13:54:37;99234.50;;;11.98
62845;BMP280;48929;47.910;20.390;2023-04-03T13:57:14;99235.59;;;12.24
62845;BMP280;48929;47.910;20.390;2023-04-03T13:59:44;99245.91;;;12.52
62845;BMP280;48929;47.910;20.390;2023-04-03T14:02:17;99245.16;;;12.51
62845;BMP280;48929;47.910;20.390;2023-04-03T14:04:52;99235.28;;;12.26
62845;BMP280;48929;47.910;20.390;2023-04-03T14:07:23;99243.28;;;11.83
62845;BMP280;48929;47.910;20.390;2023-04-03T14:09:53;99239.78;;;11.60
62845;BMP280;48929;47.910;20.390;2023-04-03T14:12:33;99232.47;;;11.68
62845;BMP280;48929;47.910;20.390;2023-04-03T14:15:04;99242.53;;;11.96
62845;BMP280;48929;47.910;20.390;2023-04-03T14:17:34;99241.69;;;12.01
62845;BMP280;48929;47.910;20.390;2023-04-03T14:20:04;99240.94;;;12.14
62845;BMP280;48929;47.910;20.390;2023-04-03T14:22:33;99250.13;;;12.20
62845;BMP280;48929;47.910;20.390;2023-04-03T14:25:02;99245.84;;;12.29
62845;BMP280;48929;47.910;20.390;2023-04-03T14:27:37;99252.63;;;12.39
62845;BMP280;48929;47.910;20.390;2023-04-03T14:30:11;99242.50;;;12.15
62845;BMP280;48929;47.910;20.390;2023-04-03T14:32:41;99234.41;;;11.25
62845;BMP280;48929;47.910;20.390;2023-04-03T14:35:11;99232.97;;;10.76
62845;BMP280;48929;47.910;20.390;2023-04-03T14:37:41;99240.75;;;10.52
62845;BMP280;48929;47.910;20.390;2023-04-03T14:40:13;99251.81;;;10.29
62845;BMP280;48929;47.910;20.390;2023-04-03T14:42:46;99258.06;;;10.18
62845;BMP280;48929;47.910;20.390;2023-04-03T14:45:16;99251.78;;;10.05
62845;BMP280;48929;47.910;20.390;2023-04-03T14:47:47;99267.06;;;9.91
62845;BMP280;48929;47.910;20.390;2023-04-03T14:50:19;99278.81;;;9.74